sensor_id;sensor_type;location;lat;lon;timestamp;temperature;humidity
34768;DHT22;21755;43.608;1.236;2023-04-15T00:00:46;10.70;99.90
34768;DHT22;21755;43.608;1.236;2023-04-15T00:03:11;10.60;99.90
34768;DHT22;21755;43.608;1.236;2023-04-15T00:05:37;10.70;99.90
34768;DHT22;21755;43.608;1.236;2023-04-15T00:08:03;10.60;99.90
34768;DHT22;21755;43.608;1.236;2023-04-15T00:10:29;10.60;99.90
34768;DHT22;21755;43.608;1.236;2023-04-15T00:12:55;10.60;99.90
34768;DHT22;21755;43.608;1.236;2023-04-15T00:15:21;10.60;99.90
34768;DHT22;21755;43.608;1.236;2023-04-15T00:17:48;10.60;99.90
34768;DHT22;21755;43.608;1.236;2023-04-15T00:20:14;10.60;99.90
34768;DHT22;21755;43.608;1.236;2023-04-15T00:22:39;10.60;99.90
34768;DHT22;21755;43.608;1.236;2023-04-15T00:25:06;10.60;99.90
34768;DHT22;21755;43.608;1.236;2023-04-15T00:27:31;10.60;99.90
34768;DHT22;21755;43.608;1.236;2023-04-15T00:29:57;10.70;99.90
34768;DHT22;21755;43.608;1.236;2023-04-15T00:32:23;10.70;99.90
34768;DHT22;21755;43.608;1.236;2023-04-15T00:34:48;10.70;99.90
34768;DHT22;21755;43.608;1.236;2023-04-15T00:37:15;10.60;99.90
34768;DHT22;21755;43.608;1.236;2023-04-15T00:39:40;10.50;99.90
34768;DHT22;21755;43.608;1.236;2023-04-15T00:42:06;10.50;99.90
34768;DHT22;21755;43.608;1.236;2023-04-15T00:44:32;10.50;99.90
34768;DHT22;21755;43.608;1.236;2023-04-15T00:46:59;10.50;99.90
34768;DHT22;21755;43.608;1.236;2023-04-15T00:49:24;10.50;99.90
34768;DHT22;21755;43.608;1.236;2023-04-15T00:51:51;10.50;99.90
34768;DHT22;21755;43.608;1.236;2023-04-15T00:54:17;10.50;99.90
34768;DHT22;21755;43.608;1.236;2023-04-15T00:56:42;10.50;99.90
34768;DHT22;21755;43.608;1.236;2023-04-15T00:59:08;10.50;99.90
34768;DHT22;21755;43.608;1.236;2023-04-15T01:01:34;10.50;99.90
34768;DHT22;21755;43.608;1.236;2023-04-15T01:04:01;10.50;99.90
34768;DHT22;21755;43.608;1.236;2023-04-15T01:06:27;10.50;99.90
34768;DHT22;21755;43.608;1.236;2023-04-15T01:08:53;10.50;99.90
34768;DHT22;21755;43.608;1.236;2023-04-15T01:11:20;10.40;99.90
34768;DHT22;21755;43.608;1.236;2023-04-15T01:13:46;10.40;99.90
34768;DHT22;21755;43.608;1.236;2023-04-15T01:16:13;10.50;99.90
34768;DHT22;21755;43.608;1.236;2023-04-15T01:18:38;10.50;99.90
34768;DHT22;21755;43.608;1.236;2023-04-15T01:21:04;10.50;99.90
34768;DHT22;21755;43.608;1.236;2023-04-15T01:23:30;10.60;99.90
34768;DHT22;21755;43.608;1.236;2023-04-15T01:25:57;10.70;99.90
34768;DHT22;21755;43.608;1.236;2023-04-15T01:28:23;10.70;99.90
34768;DHT22;21755;43.608;1.236;2023-04-15T01:30:49;10.70;99.90
34768;DHT22;21755;43.608;1.236;2023-04-15T01:33:15;10.70;99.90
34768;DHT22;21755;43.608;1.236;2023-04-15T01:35:41;10.70;99.90
34768;DHT22;21755;43.608;1.236;2023-04-15T01:38:09;10.70;99.90
34768;DHT22;21755;43.608;1.236;2023-04-15T01:40:35;10.50;99.90
34768;DHT22;21755;43.608;1.236;2023-04-15T01:43:01;10.40;99.90
34768;DHT22;21755;43.608;1.236;2023-04-15T01:45:28;10.30;99.90
34768;DHT22;21755;43.608;1.236;2023-04-15T01:47:54;10.30;99.90
34768;DHT22;21755;43.608;1.236;2023-04-15T01:50:20;10.30;99.90
34768;DHT22;21755;43.608;1.236;2023-04-15T01:52:46;10.20;99.90
34768;DHT22;21755;43.608;1.236;2023-04-15T01:55:12;10.20;99.90
34768;DHT22;21755;43.608;1.236;2023-04-15T01:57:38;10.20;99.90
34768;DHT22;21755;43.608;1.236;2023-04-15T02:00:04;10.20;99.90
34768;DHT22;21755;43.608;1.236;2023-04-15T02:02:32;10.20;99.90
34768;DHT22;21755;43.608;1.236;2023-04-15T02:04:58;10.20;99.90
34768;DHT22;21755;43.608;1.236;2023-04-15T02:07:23;10.10;99.90
34768;DHT22;21755;43.608;1.236;2023-04-15T02:09:49;10.20;99.90
34768;DHT22;21755;43.608;1.236;2023-04-15T02:12:15;10.20;99.90
34768;DHT22;21755;43.608;1.236;2023-04-15T02:14:41;10.10;99.90
34768;DHT22;21755;43.608;1.236;2023-04-15T02:17:06;10.00;99.90
34768;DHT22;21755;43.608;1.236;2023-04-15T02:19:33;10.00;99.90
34768;DHT22;21755;43.608;1.236;2023-04-15T02:21:58;9.90;99.90
34768;DHT22;21755;43.608;1.236;2023-04-15T02:24:26;9.90;99.90
34768;DHT22;21755;43.608;1.236;2023-04-15T02:26:52;9.90;99.90
34768;DHT22;21755;43.608;1.236;2023-04-15T02:29:17;9.90;99.90
34768;DHT22;21755;43.608;1.236;2023-04-15T02:31:43;10.00;99.90
34768;DHT22;21755;43.608;1.236;2023-04-15T02:34:10;9.90;99.90
34768;DHT22;21755;43.608;1.236;2023-04-15T02:36:35;9.90;99.90
34768;DHT22;21755;43.608;1.236;2023-04-15T02:39:01;9.90;99.90
34768;DHT22;21755;43.608;1.236;2023-04-15T02:41:28;9.90;99.90
34768;DHT22;21755;43.608;1.236;2023-04-15T02:43:54;10.00;99.90
34768;DHT22;21755;43.608;1.236;2023-04-15T02:46:20;10.10;99.90
34768;DHT22;21755;43.608;1.236;2023-04-15T02:48:47;10.10;99.90
34768;DHT22;21755;43.608;1.236;2023-04-15T02:51:13;10.20;99.90
34768;DHT22;21755;43.608;1.236;2023-04-15T02:53:39;10.20;99.90
34768;DHT22;21755;43.608;1.236;2023-04-15T02:56:06;10.20;99.90
34768;DHT22;21755;43.608;1.236;2023-04-15T02:58:33;10.20;99.90
34768;DHT22;21755;43.608;1.236;2023-04-15T03:00:59;10.20;99.90
34768;DHT22;21755;43.608;1.236;2023-04-15T03:03:25;10.10;99.90
34768;DHT22;21755;43.608;1.236;2023-04-15T03:05:52;10.10;99.90
34768;DHT22;21755;43.608;1.236;2023-04-15T03:08:18;10.10;99.90
34768;DHT22;21755;43.608;1.236;2023-04-15T03:10:43;10.10;99.90
34768;DHT22;21755;43.608;1.236;2023-04-15T03:13:09;10.10;99.90
34768;DHT22;21755;43.608;1.236;2023-04-15T03:15:35;10.10;99.90
34768;DHT22;21755;43.608;1.236;2023-04-15T03:18:00;10.10;99.90
34768;DHT22;21755;43.608;1.236;2023-04-15T03:20:26;10.00;99.90
34768;DHT22;21755;43.608;1.236;2023-04-15T03:22:52;10.10;99.90
34768;DHT22;21755;43.608;1.236;2023-04-15T03:25:17;10.10;99.90
34768;DHT22;21755;43.608;1.236;2023-04-15T03:27:43;10.10;99.90
34768;DHT22;21755;43.608;1.236;2023-04-15T03:30:09;10.10;99.90
34768;DHT22;21755;43.608;1.236;2023-04-15T03:32:35;10.00;99.90
34768;DHT22;21755;43.608;1.236;2023-04-15T03:35:00;10.00;99.90
34768;DHT22;21755;43.608;1.236;2023-04-15T03:37:26;10.00;99.90
34768;DHT22;21755;43.608;1.236;2023-04-15T03:39:52;10.00;99.90
34768;DHT22;21755;43.608;1.236;2023-04-15T03:42:17;10.00;99.90
34768;DHT22;21755;43.608;1.236;2023-04-15T03:44:43;9.90;99.90
34768;DHT22;21755;43.608;1.236;2023-04-15T03:47:09;9.90;99.90
34768;DHT22;21755;43.608;1.236;2023-04-15T03:49:35;9.80;99.90
34768;DHT22;21755;43.608;1.236;2023-04-15T03:52:01;9.80;99.90
34768;DHT22;21755;43.608;1.236;2023-04-15T03:54:27;9.80;99.90
34768;DHT22;21755;43.608;1.236;2023-04-15T03:56:52;9.80;99.90
34768;DHT22;21755;43.608;1.236;2023-04-15T03:59:18;9.90;99.90
34768;DHT22;21755;43.608;1.236;2023-04-15T04:01:44;9.90;99.90
34768;DHT22;21755;43.608;1.236;2023-04-15T04:04:10;9.90;99.90
34768;DHT22;21755;43.608;1.236;2023-04-15T04:06:35;9.90;99.90
34768;DHT22;21755;43.608;1.236;2023-04-15T04:09:01;9.90;99.90
34768;DHT22;21755;43.608;1.236;2023-04-15T04:11:27;9.90;99.90
34768;DHT22;21755;43.608;1.236;2023-04-15T04:13:52;9.90;99.90
34768;DHT22;21755;43.608;1.236;2023-04-15T04:16:18;9.90;99.90
34768;DHT22;21755;43.608;1.236;2023-04-15T04:18:44;9.80;99.90
34768;DHT22;21755;43.608;1.236;2023-04-15T04:21:10;9.80;99.90
34768;DHT22;21755;43.608;1.236;2023-04-15T04:23:36;9.80;99.90
34768;DHT22;21755;43.608;1.236;2023-04-15T04:26:01;9.80;99.90
34768;DHT22;21755;43.608;1.236;2023-04-15T04:28:27;9.70;99.90
34768;DHT22;21755;43.608;1.236;2023-04-15T04:30:52;9.80;99.90
34768;DHT22;21755;43.608;1.236;2023-04-15T04:33:18;9.80;99.90
34768;DHT22;21755;43.608;1.236;2023-04-15T04:35:44;9.70;99.90
34768;DHT22;21755;43.608;1.236;2023-04-15T04:38:10;9.80;99.90
34768;DHT22;21755;43.608;1.236;2023-04-15T04:40:36;9.80;99.90
34768;DHT22;21755;43.608;1.236;2023-04-15T04:43:02;9.80;99.90
34768;DHT22;21755;43.608;1.236;2023-04-15T04:45:27;9.80;99.90
34768;DHT22;21755;43.608;1.236;2023-04-15T04:47:53;9.80;99.90
34768;DHT22;21755;43.608;1.236;2023-04-15T04:50:18;9.80;99.90
34768;DHT22;21755;43.608;1.236;2023-04-15T04:52:44;9.80;99.90
34768;DHT22;21755;43.608;1.236;2023-04-15T04:55:10;9.80;99.90
34768;DHT22;21755;43.608;1.236;2023-04-15T04:57:36;9.80;99.90
34768;DHT22;21755;43.608;1.236;2023-04-15T05:00:04;9.80;99.90
34768;DHT22;21755;43.608;1.236;2023-04-15T05:02:30;9.90;99.90
34768;DHT22;21755;43.608;1.236;2023-04-15T05:04:56;9.90;99.90
34768;DHT22;21755;43.608;1.236;2023-04-15T05:07:22;9.90;99.90
34768;DHT22;21755;43.608;1.236;2023-04-15T05:09:48;9.90;99.90
34768;DHT22;21755;43.608;1.236;2023-04-15T05:12:13;9.90;99.90
34768;DHT22;21755;43.608;1.236;2023-04-15T05:14:39;10.00;99.90
34768;DHT22;21755;43.608;1.236;2023-04-15T05:17:06;10.00;99.90
34768;DHT22;21755;43.608;1.236;2023-04-15T05:19:31;10.00;99.90
34768;DHT22;21755;43.608;1.236;2023-04-15T05:21:57;10.00;99.90
34768;DHT22;21755;43.608;1.236;2023-04-15T05:24:23;10.00;99.90
34768;DHT22;21755;43.608;1.236;2023-04-15T05:26:49;10.00;99.90
34768;DHT22;21755;43.608;1.236;2023-04-15T05:29:14;10.00;99.90
34768;DHT22;21755;43.608;1.236;2023-04-15T05:31:40;10.00;99.90
34768;DHT22;21755;43.608;1.236;2023-04-15T05:34:06;10.00;99.90
34768;DHT22;21755;43.608;1.236;2023-04-15T05:36:32;10.00;99.90
34768;DHT22;21755;43.608;1.236;2023-04-15T05:38:57;9.90;99.90
34768;DHT22;21755;43.608;1.236;2023-04-15T05:41:23;9.90;99.90
34768;DHT22;21755;43.608;1.236;2023-04-15T05:43:49;9.90;99.90
34768;DHT22;21755;43.608;1.236;2023-04-15T05:46:15;9.90;99.90
34768;DHT22;21755;43.608;1.236;2023-04-15T05:48:41;10.00;99.90
34768;DHT22;21755;43.608;1.236;2023-04-15T05:51:06;9.90;99.90
34768;DHT22;21755;43.608;1.236;2023-04-15T05:53:32;9.90;99.90
34768;DHT22;21755;43.608;1.236;2023-04-15T05:55:58;9.90;99.90
34768;DHT22;21755;43.608;1.236;2023-04-15T05:58:24;10.00;99.90
34768;DHT22;21755;43.608;1.236;2023-04-15T06:00:49;10.00;99.90
34768;DHT22;21755;43.608;1.236;2023-04-15T06:03:15;9.90;99.90
34768;DHT22;21755;43.608;1.236;2023-04-15T06:05:41;9.90;99.90
34768;DHT22;21755;43.608;1.236;2023-04-15T06:08:07;10.00;99.90
34768;DHT22;21755;43.608;1.236;2023-04-15T06:10:33;10.00;99.90
34768;DHT22;21755;43.608;1.236;2023-04-15T06:13:01;10.00;99.90
34768;DHT22;21755;43.608;1.236;2023-04-15T06:15:28;10.00;99.90
34768;DHT22;21755;43.608;1.236;2023-04-15T06:17:54;10.10;99.90
34768;DHT22;21755;43.608;1.236;2023-04-15T06:20:19;10.20;99.90
34768;DHT22;21755;43.608;1.236;2023-04-15T06:22:45;10.20;99.90
34768;DHT22;21755;43.608;1.236;2023-04-15T06:25:11;10.20;99.90
34768;DHT22;21755;43.608;1.236;2023-04-15T06:27:37;10.30;99.90
34768;DHT22;21755;43.608;1.236;2023-04-15T06:30:03;10.20;99.90
34768;DHT22;21755;43.608;1.236;2023-04-15T06:32:28;10.20;99.90
34768;DHT22;21755;43.608;1.236;2023-04-15T06:34:54;10.30;99.90
34768;DHT22;21755;43.608;1.236;2023-04-15T06:37:20;10.20;99.90
34768;DHT22;21755;43.608;1.236;2023-04-15T06:39:46;10.20;99.90
34768;DHT22;21755;43.608;1.236;2023-04-15T06:42:12;10.00;99.90
34768;DHT22;21755;43.608;1.236;2023-04-15T06:44:38;9.80;99.90
34768;DHT22;21755;43.608;1.236;2023-04-15T06:47:03;9.70;99.90
34768;DHT22;21755;43.608;1.236;2023-04-15T06:49:29;9.70;99.90
34768;DHT22;21755;43.608;1.236;2023-04-15T06:51:55;9.50;99.90
34768;DHT22;21755;43.608;1.236;2023-04-15T06:54:20;9.50;99.90
34768;DHT22;21755;43.608;1.236;2023-04-15T06:56:46;9.50;99.90
34768;DHT22;21755;43.608;1.236;2023-04-15T06:59:12;9.60;99.90
34768;DHT22;21755;43.608;1.236;2023-04-15T07:01:41;9.60;99.90
34768;DHT22;21755;43.608;1.236;2023-04-15T07:04:07;9.60;99.90
34768;DHT22;21755;43.608;1.236;2023-04-15T07:06:32;9.60;99.90
34768;DHT22;21755;43.608;1.236;2023-04-15T07:08:59;9.60;99.90
34768;DHT22;21755;43.608;1.236;2023-04-15T07:11:25;9.60;99.90
34768;DHT22;21755;43.608;1.236;2023-04-15T07:13:51;9.70;99.90
34768;DHT22;21755;43.608;1.236;2023-04-15T07:16:17;9.80;99.90
34768;DHT22;21755;43.608;1.236;2023-04-15T07:18:42;9.80;99.90
34768;DHT22;21755;43.608;1.236;2023-04-15T07:21:08;9.80;99.90
34768;DHT22;21755;43.608;1.236;2023-04-15T07:23:34;10.00;99.90
34768;DHT22;21755;43.608;1.236;2023-04-15T07:26:00;10.00;99.90
34768;DHT22;21755;43.608;1.236;2023-04-15T07:28:26;10.10;99.90
34768;DHT22;21755;43.608;1.236;2023-04-15T07:30:52;10.10;99.90
34768;DHT22;21755;43.608;1.236;2023-04-15T07:33:17;10.10;99.90
34768;DHT22;21755;43.608;1.236;2023-04-15T07:35:43;10.10;99.90
34768;DHT22;21755;43.608;1.236;2023-04-15T07:38:09;10.20;99.90
34768;DHT22;21755;43.608;1.236;2023-04-15T07:40:37;10.30;99.90
34768;DHT22;21755;43.608;1.236;2023-04-15T07:43:03;10.20;99.90
34768;DHT22;21755;43.608;1.236;2023-04-15T07:45:30;10.20;99.90
34768;DHT22;21755;43.608;1.236;2023-04-15T07:47:56;10.20;99.90
34768;DHT22;21755;43.608;1.236;2023-04-15T07:50:21;10.20;99.90
34768;DHT22;21755;43.608;1.236;2023-04-15T07:52:48;10.20;99.90
34768;DHT22;21755;43.608;1.236;2023-04-15T07:55:14;10.20;99.90
34768;DHT22;21755;43.608;1.236;2023-04-15T07:57:41;10.20;99.90
34768;DHT22;21755;43.608;1.236;2023-04-15T08:00:07;10.20;99.90
34768;DHT22;21755;43.608;1.236;2023-04-15T08:02:34;10.20;99.90
34768;DHT22;21755;43.608;1.236;2023-04-15T08:04:59;10.20;99.90
34768;DHT22;21755;43.608;1.236;2023-04-15T08:07:27;10.20;99.90
34768;DHT22;21755;43.608;1.236;2023-04-15T08:09:53;10.20;99.90
34768;DHT22;21755;43.608;1.236;2023-04-15T08:12:18;10.10;99.90
34768;DHT22;21755;43.608;1.236;2023-04-15T08:14:44;10.20;99.90
34768;DHT22;21755;43.608;1.236;2023-04-15T08:17:11;10.40;99.90
34768;DHT22;21755;43.608;1.236;2023-04-15T08:19:36;10.60;99.90
34768;DHT22;21755;43.608;1.236;2023-04-15T08:22:02;10.70;99.90
34768;DHT22;21755;43.608;1.236;2023-04-15T08:24:28;10.60;99.90
34768;DHT22;21755;43.608;1.236;2023-04-15T08:26:54;10.70;99.90
34768;DHT22;21755;43.608;1.236;2023-04-15T08:29:21;10.70;99.90
34768;DHT22;21755;43.608;1.236;2023-04-15T08:31:47;10.90;99.90
34768;DHT22;21755;43.608;1.236;2023-04-15T08:34:13;11.20;99.90
34768;DHT22;21755;43.608;1.236;2023-04-15T08:36:39;11.30;99.90
34768;DHT22;21755;43.608;1.236;2023-04-15T08:39:05;11.30;99.90
34768;DHT22;21755;43.608;1.236;2023-04-15T08:41:39;11.40;99.90
34768;DHT22;21755;43.608;1.236;2023-04-15T08:44:10;11.30;99.90
34768;DHT22;21755;43.608;1.236;2023-04-15T08:46:37;11.30;99.90
34768;DHT22;21755;43.608;1.236;2023-04-15T08:49:03;11.40;99.90
34768;DHT22;21755;43.608;1.236;2023-04-15T08:51:30;11.80;99.90
34768;DHT22;21755;43.608;1.236;2023-04-15T08:53:56;11.80;99.90
34768;DHT22;21755;43.608;1.236;2023-04-15T08:56:23;11.70;99.90
34768;DHT22;21755;43.608;1.236;2023-04-15T08:58:49;11.80;99.90
34768;DHT22;21755;43.608;1.236;2023-04-15T09:01:15;11.80;99.90
34768;DHT22;21755;43.608;1.236;2023-04-15T09:03:41;12.00;99.90
34768;DHT22;21755;43.608;1.236;2023-04-15T09:06:07;11.90;99.90
34768;DHT22;21755;43.608;1.236;2023-04-15T09:08:33;11.80;99.90
34768;DHT22;21755;43.608;1.236;2023-04-15T09:11:01;11.80;99.90
34768;DHT22;21755;43.608;1.236;2023-04-15T09:13:27;11.70;99.90
34768;DHT22;21755;43.608;1.236;2023-04-15T09:15:54;11.90;99.90
34768;DHT22;21755;43.608;1.236;2023-04-15T09:18:29;11.90;99.90
34768;DHT22;21755;43.608;1.236;2023-04-15T09:20:55;12.00;99.90
34768;DHT22;21755;43.608;1.236;2023-04-15T09:23:21;11.80;99.90
34768;DHT22;21755;43.608;1.236;2023-04-15T09:25:47;12.10;99.90
34768;DHT22;21755;43.608;1.236;2023-04-15T09:28:13;11.90;99.90
34768;DHT22;21755;43.608;1.236;2023-04-15T09:30:41;11.90;99.90
34768;DHT22;21755;43.608;1.236;2023-04-15T09:33:10;12.10;99.90
34768;DHT22;21755;43.608;1.236;2023-04-15T09:35:38;12.20;99.90
34768;DHT22;21755;43.608;1.236;2023-04-15T09:38:05;12.20;99.90
34768;DHT22;21755;43.608;1.236;2023-04-15T09:42:58;12.20;99.90
34768;DHT22;21755;43.608;1.236;2023-04-15T09:45:24;12.60;99.90
34768;DHT22;21755;43.608;1.236;2023-04-15T09:47:49;12.90;99.90
34768;DHT22;21755;43.608;1.236;2023-04-15T09:50:18;13.00;99.90
34768;DHT22;21755;43.608;1.236;2023-04-15T09:52:45;12.80;99.90
34768;DHT22;21755;43.608;1.236;2023-04-15T09:55:12;12.80;99.90
34768;DHT22;21755;43.608;1.236;2023-04-15T09:57:38;12.70;99.90
34768;DHT22;21755;43.608;1.236;2023-04-15T10:00:06;13.00;99.90
34768;DHT22;21755;43.608;1.236;2023-04-15T10:02:33;12.90;99.90
34768;DHT22;21755;43.608;1.236;2023-04-15T10:05:02;13.20;99.90
34768;DHT22;21755;43.608;1.236;2023-04-15T10:07:28;13.20;99.90
34768;DHT22;21755;43.608;1.236;2023-04-15T10:09:55;13.20;99.90
34768;DHT22;21755;43.608;1.236;2023-04-15T10:12:21;13.30;99.90
34768;DHT22;21755;43.608;1.236;2023-04-15T10:14:47;13.30;99.90
34768;DHT22;21755;43.608;1.236;2023-04-15T10:17:13;13.20;99.90
34768;DHT22;21755;43.608;1.236;2023-04-15T10:19:42;13.50;99.90
34768;DHT22;21755;43.608;1.236;2023-04-15T10:22:08;13.70;99.90
34768;DHT22;21755;43.608;1.236;2023-04-15T10:24:34;13.50;99.90
34768;DHT22;21755;43.608;1.236;2023-04-15T10:27:02;13.40;99.90
34768;DHT22;21755;43.608;1.236;2023-04-15T10:29:28;13.30;99.90
34768;DHT22;21755;43.608;1.236;2023-04-15T10:31:54;13.30;99.90
34768;DHT22;21755;43.608;1.236;2023-04-15T10:34:21;13.60;99.90
34768;DHT22;21755;43.608;1.236;2023-04-15T10:36:48;13.70;99.90
34768;DHT22;21755;43.608;1.236;2023-04-15T10:39:47;13.60;99.90
34768;DHT22;21755;43.608;1.236;2023-04-15T10:42:07;13.90;99.90
34768;DHT22;21755;43.608;1.236;2023-04-15T10:44:34;13.80;99.90
34768;DHT22;21755;43.608;1.236;2023-04-15T10:47:03;13.80;99.90
34768;DHT22;21755;43.608;1.236;2023-04-15T10:49:29;13.70;99.90
34768;DHT22;21755;43.608;1.236;2023-04-15T10:51:58;13.30;99.90
34768;DHT22;21755;43.608;1.236;2023-04-15T10:56:50;13.60;99.90
34768;DHT22;21755;43.608;1.236;2023-04-15T10:59:16;13.90;99.90
34768;DHT22;21755;43.608;1.236;2023-04-15T11:01:52;14.20;99.90
34768;DHT22;21755;43.608;1.236;2023-04-15T11:10:00;13.70;99.90
34768;DHT22;21755;43.608;1.236;2023-04-15T11:12:35;13.40;99.90
34768;DHT22;21755;43.608;1.236;2023-04-15T11:17:46;13.90;99.90
34768;DHT22;21755;43.608;1.236;2023-04-15T11:20:14;14.10;99.90
34768;DHT22;21755;43.608;1.236;2023-04-15T11:22:46;14.10;99.90
34768;DHT22;21755;43.608;1.236;2023-04-15T11:25:20;14.30;99.90
34768;DHT22;21755;43.608;1.236;2023-04-15T11:27:46;14.10;99.90
34768;DHT22;21755;43.608;1.236;2023-04-15T11:30:31;14.50;99.90
34768;DHT22;21755;43.608;1.236;2023-04-15T11:33:01;14.70;99.90
34768;DHT22;21755;43.608;1.236;2023-04-15T11:35:27;14.50;99.90
34768;DHT22;21755;43.608;1.236;2023-04-15T11:37:52;14.30;99.90
34768;DHT22;21755;43.608;1.236;2023-04-15T11:40:25;14.30;99.90
34768;DHT22;21755;43.608;1.236;2023-04-15T11:43:10;14.50;99.90
34768;DHT22;21755;43.608;1.236;2023-04-15T11:45:37;14.00;99.90
34768;DHT22;21755;43.608;1.236;2023-04-15T11:48:06;13.80;99.90
34768;DHT22;21755;43.608;1.236;2023-04-15T11:50:32;14.10;99.90
34768;DHT22;21755;43.608;1.236;2023-04-15T11:52:58;14.30;99.90
34768;DHT22;21755;43.608;1.236;2023-04-15T11:55:25;14.60;99.90
34768;DHT22;21755;43.608;1.236;2023-04-15T12:00:36;14.80;99.90
34768;DHT22;21755;43.608;1.236;2023-04-15T12:06:10;14.50;99.90
34768;DHT22;21755;43.608;1.236;2023-04-15T12:13:52;14.80;99.90
34768;DHT22;21755;43.608;1.236;2023-04-15T12:16:18;14.90;99.90
34768;DHT22;21755;43.608;1.236;2023-04-15T12:18:45;15.10;99.90
34768;DHT22;21755;43.608;1.236;2023-04-15T12:21:10;15.10;99.90
34768;DHT22;21755;43.608;1.236;2023-04-15T12:23:46;15.00;99.90
34768;DHT22;21755;43.608;1.236;2023-04-15T12:26:13;15.10;99.90
34768;DHT22;21755;43.608;1.236;2023-04-15T12:28:39;14.90;98.50
34768;DHT22;21755;43.608;1.236;2023-04-15T12:31:06;14.60;97.00
34768;DHT22;21755;43.608;1.236;2023-04-15T12:33:33;14.70;97.70
34768;DHT22;21755;43.608;1.236;2023-04-15T12:35:59;14.80;98.20
34768;DHT22;21755;43.608;1.236;2023-04-15T12:38:24;14.90;99.60
34768;DHT22;21755;43.608;1.236;2023-04-15T12:40:50;15.20;99.90
34768;DHT22;21755;43.608;1.236;2023-04-15T12:43:16;15.10;98.20
34768;DHT22;21755;43.608;1.236;2023-04-15T12:45:41;15.30;99.90
34768;DHT22;21755;43.608;1.236;2023-04-15T12:48:07;15.40;99.90
34768;DHT22;21755;43.608;1.236;2023-04-15T12:50:36;15.60;99.90
34768;DHT22;21755;43.608;1.236;2023-04-15T12:53:02;15.50;98.80
34768;DHT22;21755;43.608;1.236;2023-04-15T12:55:28;15.60;98.20
34768;DHT22;21755;43.608;1.236;2023-04-15T12:57:55;15.20;97.20
34768;DHT22;21755;43.608;1.236;2023-04-15T13:00:21;14.90;99.30
34768;DHT22;21755;43.608;1.236;2023-04-15T13:02:47;14.90;98.80
34768;DHT22;21755;43.608;1.236;2023-04-15T13:05:13;15.20;98.90
34768;DHT22;21755;43.608;1.236;2023-04-15T13:07:40;15.30;98.30
34768;DHT22;21755;43.608;1.236;2023-04-15T13:10:06;15.10;97.80
34768;DHT22;21755;43.608;1.236;2023-04-15T13:12:32;15.40;98.50
34768;DHT22;21755;43.608;1.236;2023-04-15T13:15:01;15.30;96.20
34768;DHT22;21755;43.608;1.236;2023-04-15T13:17:27;15.20;99.00
34768;DHT22;21755;43.608;1.236;2023-04-15T13:19:52;15.00;98.90
34768;DHT22;21755;43.608;1.236;2023-04-15T13:22:18;14.90;99.80
34768;DHT22;21755;43.608;1.236;2023-04-15T13:24:44;15.10;99.90
34768;DHT22;21755;43.608;1.236;2023-04-15T13:27:09;15.20;99.30
34768;DHT22;21755;43.608;1.236;2023-04-15T13:29:35;15.00;97.50
34768;DHT22;21755;43.608;1.236;2023-04-15T13:32:01;15.10;97.90
34768;DHT22;21755;43.608;1.236;2023-04-15T13:34:27;15.40;98.20
34768;DHT22;21755;43.608;1.236;2023-04-15T13:36:52;15.80;99.70
34768;DHT22;21755;43.608;1.236;2023-04-15T13:39:18;15.50;97.50
34768;DHT22;21755;43.608;1.236;2023-04-15T13:41:44;15.50;99.40
34768;DHT22;21755;43.608;1.236;2023-04-15T13:44:09;15.50;97.90
34768;DHT22;21755;43.608;1.236;2023-04-15T13:46:36;15.30;97.20
34768;DHT22;21755;43.608;1.236;2023-04-15T13:49:03;15.20;99.90
34768;DHT22;21755;43.608;1.236;2023-04-15T13:51:30;15.10;98.90
34768;DHT22;21755;43.608;1.236;2023-04-15T13:53:57;15.20;99.10
34768;DHT22;21755;43.608;1.236;2023-04-15T13:56:23;15.30;98.80
34768;DHT22;21755;43.608;1.236;2023-04-15T13:58:48;15.00;97.00
34768;DHT22;21755;43.608;1.236;2023-04-15T14:01:14;14.70;97.60
34768;DHT22;21755;43.608;1.236;2023-04-15T14:03:39;14.60;97.60
34768;DHT22;21755;43.608;1.236;2023-04-15T14:06:05;14.40;97.60
34768;DHT22;21755;43.608;1.236;2023-04-15T14:08:31;14.60;98.10
34768;DHT22;21755;43.608;1.236;2023-04-15T14:10:57;15.00;98.10
34768;DHT22;21755;43.608;1.236;2023-04-15T14:13:23;15.20;97.70
34768;DHT22;21755;43.608;1.236;2023-04-15T14:15:48;15.00;98.40
34768;DHT22;21755;43.608;1.236;2023-04-15T14:18:14;14.80;97.90
34768;DHT22;21755;43.608;1.236;2023-04-15T14:20:40;14.70;97.30
34768;DHT22;21755;43.608;1.236;2023-04-15T14:23:06;15.10;96.00
34768;DHT22;21755;43.608;1.236;2023-04-15T14:25:31;15.40;96.80
34768;DHT22;21755;43.608;1.236;2023-04-15T14:27:57;15.60;97.80
34768;DHT22;21755;43.608;1.236;2023-04-15T14:30:23;15.50;95.50
34768;DHT22;21755;43.608;1.236;2023-04-15T14:32:48;15.20;96.30
34768;DHT22;21755;43.608;1.236;2023-04-15T14:35:14;14.90;97.90
34768;DHT22;21755;43.608;1.236;2023-04-15T14:37:40;14.70;97.50
34768;DHT22;21755;43.608;1.236;2023-04-15T14:40:06;14.60;98.20
34768;DHT22;21755;43.608;1.236;2023-04-15T14:42:31;14.50;98.00
34768;DHT22;21755;43.608;1.236;2023-04-15T14:44:57;14.30;98.70
34768;DHT22;21755;43.608;1.236;2023-04-15T14:47:23;14.40;98.20
34768;DHT22;21755;43.608;1.236;2023-04-15T14:49:48;14.50;98.40
34768;DHT22;21755;43.608;1.236;2023-04-15T14:52:15;14.60;99.00
34768;DHT22;21755;43.608;1.236;2023-04-15T14:54:40;14.90;98.20
34768;DHT22;21755;43.608;1.236;2023-04-15T14:57:06;15.20;98.30
34768;DHT22;21755;43.608;1.236;2023-04-15T14:59:33;15.30;96.90
34768;DHT22;21755;43.608;1.236;2023-04-15T15:01:58;15.70;97.90
34768;DHT22;21755;43.608;1.236;2023-04-15T15:04:24;15.60;96.60
34768;DHT22;21755;43.608;1.236;2023-04-15T15:06:50;15.70;97.10
34768;DHT22;21755;43.608;1.236;2023-04-15T15:09:15;15.80;96.50
34768;DHT22;21755;43.608;1.236;2023-04-15T15:11:41;15.60;96.30
34768;DHT22;21755;43.608;1.236;2023-04-15T15:14:07;15.40;96.40
34768;DHT22;21755;43.608;1.236;2023-04-15T15:16:33;15.10;96.00
34768;DHT22;21755;43.608;1.236;2023-04-15T15:18:58;15.00;97.00
34768;DHT22;21755;43.608;1.236;2023-04-15T15:21:24;15.40;98.30
34768;DHT22;21755;43.608;1.236;2023-04-15T15:23:51;15.50;97.30
34768;DHT22;21755;43.608;1.236;2023-04-15T15:26:17;15.80;98.40
34768;DHT22;21755;43.608;1.236;2023-04-15T15:28:43;15.30;96.30
34768;DHT22;21755;43.608;1.236;2023-04-15T15:31:10;15.10;96.10
34768;DHT22;21755;43.608;1.236;2023-04-15T15:33:36;14.90;97.90
34768;DHT22;21755;43.608;1.236;2023-04-15T15:36:02;14.80;97.00
34768;DHT22;21755;43.608;1.236;2023-04-15T15:38:28;14.90;97.00
34768;DHT22;21755;43.608;1.236;2023-04-15T15:40:53;15.00;97.20
34768;DHT22;21755;43.608;1.236;2023-04-15T15:43:19;15.10;97.70
34768;DHT22;21755;43.608;1.236;2023-04-15T15:45:45;15.10;97.40
34768;DHT22;21755;43.608;1.236;2023-04-15T15:48:10;14.90;97.00
34768;DHT22;21755;43.608;1.236;2023-04-15T15:50:36;14.80;97.20